Charlotte — C6DH3 — position and weather

sailwx.info

Track history (hours):
 
Tides and Currents Weather Stations Pressure Air Temp Water Temp Dewpoint Dewpoint Depression Visibility Wind Speed Wind Dir Waves Ship Positions

Charlotte

Last reported at 2017-Oct-18 20:00 UTC. Time now 2017-Oct-18 20:29 UTC.
Position N 26°07' W 080°04'.

Length 90 m; draft 3.3 m.

Type: Cargo ship. MMSI: 311000674.

Date/timePositionNaut miles runAvg speedWind from/ knotsBaromVisibWave heightAir tempDewpointWater temp
2017-Oct-18 20:00N 26°07' W 080°04'0 0.0
2017-Oct-18 19:30N 26°07' W 080°04'0 0.0
2017-Oct-18 19:00N 26°07' W 080°04'0 0.0
2017-Oct-18 18:30N 26°07' W 080°04'0 0.0
2017-Oct-18 18:00N 26°07' W 080°04'0 0.0
2017-Oct-18 17:30N 26°07' W 080°04'0 0.0
2017-Oct-18 17:00N 26°07' W 080°04'0 0.0
2017-Oct-18 16:30N 26°07' W 080°04'0 0.0
2017-Oct-18 16:00N 26°07' W 080°04'0 0.0
2017-Oct-18 15:30N 26°07' W 080°04'0 0.0
2017-Oct-18 15:00N 26°07' W 080°04'0 0.0
2017-Oct-18 14:00N 26°07' W 080°04'0 0.0
2017-Oct-18 13:30N 26°07' W 080°04'0 0.0
2017-Oct-18 13:00N 26°07' W 080°04'0 0.0
2017-Oct-18 12:30N 26°07' W 080°04'0 0.0
2017-Oct-18 12:00N 26°07' W 080°04'0 0.0
2017-Oct-18 11:30N 26°07' W 080°04'0 0.0
2017-Oct-18 11:00N 26°07' W 080°04'0 0.0
2017-Oct-18 10:30N 26°07' W 080°04'0 0.0
2017-Oct-18 10:00N 26°07' W 080°04'0 0.0
2017-Oct-18 09:30N 26°07' W 080°04'0 0.1
2017-Oct-18 09:00N 26°07' W 080°04'0 0.0
2017-Oct-18 08:30N 26°07' W 080°04'0 0.0
2017-Oct-18 08:00N 26°07' W 080°04'0 0.0
2017-Oct-18 07:30N 26°07' W 080°04'0 0.1
2017-Oct-18 07:00N 26°07' W 080°04'0 0.3
2017-Oct-18 06:30N 26°07' W 080°04'0 0.0
2017-Oct-18 06:00N 26°07' W 080°05'0 0.0
2017-Oct-18 05:30N 26°07' W 080°05'0 0.0
2017-Oct-18 05:00N 26°07' W 080°05'0 0.0
2017-Oct-18 04:30N 26°07' W 080°05'0 0.0
2017-Oct-18 04:00N 26°07' W 080°05'0 0.0
2017-Oct-18 03:30N 26°07' W 080°05'0 0.0
2017-Oct-18 03:00N 26°07' W 080°05'0 0.0
2017-Oct-18 02:30N 26°07' W 080°05'0 0.0
2017-Oct-18 02:00N 26°07' W 080°05'0 0.0
2017-Oct-18 01:30N 26°07' W 080°05'0 0.0
2017-Oct-18 01:00N 26°07' W 080°05'1 2.4
2017-Oct-18 00:30N 26°06' W 080°05'3 5.3
2017-Oct-18 00:00N 26°04' W 080°07'0 0.2
2017-Oct-17 23:30N 26°04' W 080°07'0 0.0
2017-Oct-17 23:00N 26°04' W 080°07'0 0.0
2017-Oct-17 22:30N 26°04' W 080°07'0 0.0
2017-Oct-17 22:00N 26°04' W 080°07'0 0.0
2017-Oct-17 21:30N 26°04' W 080°07'0 0.0
2017-Oct-17 21:00N 26°04' W 080°07'0 0.0
2017-Oct-17 20:30N 26°04' W 080°07'0 0.0
2017-Oct-17 20:00N 26°04' W 080°07'0 0.0
2017-Oct-17 19:30N 26°04' W 080°07'0 0.0
2017-Oct-17 19:00N 26°04' W 080°07'0 0.0
2017-Oct-17 18:30N 26°04' W 080°07'0 0.0
2017-Oct-17 18:00N 26°04' W 080°07'0 0.0
2017-Oct-17 17:30N 26°04' W 080°07'0 0.0
2017-Oct-17 17:00N 26°04' W 080°07'1 2.2
2017-Oct-17 16:30N 26°05' W 080°07'3 6.9
2017-Oct-17 16:00N 26°05' W 080°03'3 6.6
2017-Oct-17 15:30N 26°02' W 080°02'4 8.3
2017-Oct-17 15:00N 25°58' W 080°02'4 7.8
2017-Oct-17 14:30N 25°54' W 080°02'4 7.7
2017-Oct-17 14:00N 25°50' W 080°01'4 7.2
2017-Oct-17 13:30N 25°46' W 080°01'4 7.7
2017-Oct-17 13:00N 25°42' W 080°01'4 8.3
2017-Oct-17 12:30N 25°38' W 080°01'4 8.3
2017-Oct-17 12:00N 25°34' W 080°01'4 8.3
2017-Oct-17 11:30N 25°30' W 080°00'5 9.2
2017-Oct-17 11:00N 25°25' W 080°00'  
Track history (hours):
 
Tides and Currents Weather Stations Pressure Air Temp Water Temp Dewpoint Dewpoint Depression Visibility Wind Speed Wind Dir Waves Ship Positions

Charlotte

Last reported at 2017-Oct-18 20:00 UTC. Time now 2017-Oct-18 20:29 UTC.
Position N 26°07' W 080°04'.

Length 90 m; draft 3.3 m.

Type: Cargo ship. MMSI: 311000674.

Date/timePositionNaut miles runAvg speedWind from/ knotsBaromVisibWave heightAir tempDewpointWater temp
2017-Oct-18 20:00N 26°07' W 080°04'0 0.0
2017-Oct-18 19:30N 26°07' W 080°04'0 0.0
2017-Oct-18 19:00N 26°07' W 080°04'0 0.0
2017-Oct-18 18:30N 26°07' W 080°04'0 0.0
2017-Oct-18 18:00N 26°07' W 080°04'0 0.0
2017-Oct-18 17:30N 26°07' W 080°04'0 0.0
2017-Oct-18 17:00N 26°07' W 080°04'0 0.0
2017-Oct-18 16:30N 26°07' W 080°04'0 0.0
2017-Oct-18 16:00N 26°07' W 080°04'0 0.0
2017-Oct-18 15:30N 26°07' W 080°04'0 0.0
2017-Oct-18 15:00N 26°07' W 080°04'0 0.0
2017-Oct-18 14:00N 26°07' W 080°04'0 0.0
2017-Oct-18 13:30N 26°07' W 080°04'0 0.0
2017-Oct-18 13:00N 26°07' W 080°04'0 0.0
2017-Oct-18 12:30N 26°07' W 080°04'0 0.0
2017-Oct-18 12:00N 26°07' W 080°04'0 0.0
2017-Oct-18 11:30N 26°07' W 080°04'0 0.0
2017-Oct-18 11:00N 26°07' W 080°04'0 0.0
2017-Oct-18 10:30N 26°07' W 080°04'0 0.0
2017-Oct-18 10:00N 26°07' W 080°04'0 0.0
2017-Oct-18 09:30N 26°07' W 080°04'0 0.1
2017-Oct-18 09:00N 26°07' W 080°04'0 0.0
2017-Oct-18 08:30N 26°07' W 080°04'0 0.0
2017-Oct-18 08:00N 26°07' W 080°04'0 0.0
2017-Oct-18 07:30N 26°07' W 080°04'0 0.1
2017-Oct-18 07:00N 26°07' W 080°04'0 0.3
2017-Oct-18 06:30N 26°07' W 080°04'0 0.0
2017-Oct-18 06:00N 26°07' W 080°05'0 0.0
2017-Oct-18 05:30N 26°07' W 080°05'0 0.0
2017-Oct-18 05:00N 26°07' W 080°05'0 0.0
2017-Oct-18 04:30N 26°07' W 080°05'0 0.0
2017-Oct-18 04:00N 26°07' W 080°05'0 0.0
2017-Oct-18 03:30N 26°07' W 080°05'0 0.0
2017-Oct-18 03:00N 26°07' W 080°05'0 0.0
2017-Oct-18 02:30N 26°07' W 080°05'0 0.0
2017-Oct-18 02:00N 26°07' W 080°05'0 0.0
2017-Oct-18 01:30N 26°07' W 080°05'0 0.0
2017-Oct-18 01:00N 26°07' W 080°05'1 2.4
2017-Oct-18 00:30N 26°06' W 080°05'3 5.3
2017-Oct-18 00:00N 26°04' W 080°07'0 0.2
2017-Oct-17 23:30N 26°04' W 080°07'0 0.0
2017-Oct-17 23:00N 26°04' W 080°07'0 0.0
2017-Oct-17 22:30N 26°04' W 080°07'0 0.0
2017-Oct-17 22:00N 26°04' W 080°07'0 0.0
2017-Oct-17 21:30N 26°04' W 080°07'0 0.0
2017-Oct-17 21:00N 26°04' W 080°07'0 0.0
2017-Oct-17 20:30N 26°04' W 080°07'0 0.0
2017-Oct-17 20:00N 26°04' W 080°07'0 0.0
2017-Oct-17 19:30N 26°04' W 080°07'0 0.0
2017-Oct-17 19:00N 26°04' W 080°07'0 0.0
2017-Oct-17 18:30N 26°04' W 080°07'0 0.0
2017-Oct-17 18:00N 26°04' W 080°07'0 0.0
2017-Oct-17 17:30N 26°04' W 080°07'0 0.0
2017-Oct-17 17:00N 26°04' W 080°07'1 2.2
2017-Oct-17 16:30N 26°05' W 080°07'3 6.9
2017-Oct-17 16:00N 26°05' W 080°03'3 6.6
2017-Oct-17 15:30N 26°02' W 080°02'4 8.3
2017-Oct-17 15:00N 25°58' W 080°02'4 7.8
2017-Oct-17 14:30N 25°54' W 080°02'4 7.7
2017-Oct-17 14:00N 25°50' W 080°01'4 7.2
2017-Oct-17 13:30N 25°46' W 080°01'4 7.7
2017-Oct-17 13:00N 25°42' W 080°01'4 8.3
2017-Oct-17 12:30N 25°38' W 080°01'4 8.3
2017-Oct-17 12:00N 25°34' W 080°01'4 8.3
2017-Oct-17 11:30N 25°30' W 080°00'5 9.2
2017-Oct-17 11:00N 25°25' W 080°00'  

Dump ship's entire track history